Terminal Aerodrome Forecast
Issued by NWS

Home | Current Version | Previous Version | Text Only | Print | Product List | Glossary Off
Versions: 1 2 3 4 5 6 7 8 9 10 11 12

000
FTUS45 KGGW 092325
TAFGDV
TAF
KGDV 092325Z 1000/1024 29014G24KT P6SM SKC WS020/31050KT
     FM100600 28012G25KT P6SM FEW150 WS020/32040KT
     FM101200 27009KT P6SM FEW200=

USA.gov is the U.S. government's official web portal to all federal, state and local government web resources and services.